Benone, United Kingdom
Current Conditions -  °F | °C
As of 2:50 AM on Wednesday 26 Nov 2014 (Local Time) from EGPI Reporting Station
Broken Clouds Broken Clouds  
Wind Chill: 45°   Ceiling: 1900
Heat Index: 48°   Visibility: 6mi
Dew Point: 45°   Wind: 8mph
Humidity: 87%   Direction: 170°S
Pressure: 30.03"   Gusts: NA
Location:  55.17°N, 6.88°W
Report Text: EGPI 260250Z AUTO 17007KT 140V200 9999 BKN019/// 09/07 Q1017
Loading
Personal Weather Stations






























Interactive Weather Map New forecast layout! Learn more

10-Day Weather Forecast

Advertisements
Track Severe Weather on mobile